Rea, Missouri
Current Conditions -  °F | °C
As of 6:41 AM on Monday 20 Oct 2014 (Local Time) from KSTJ Reporting Station
Haze Haze  
Wind Chill: 42°   Ceiling: 200
Heat Index: 42°   Visibility: 1mi
Dew Point: 41°   Wind: 0mph
Humidity: 96%   Direction: NA
Pressure: 30"   Gusts: NA
Location:  40.06°N, 94.76°W
Report Text: KSTJ 201141Z AUTO 00000KT 1SM R35/1200V5000FT BR VV002 06/05 A3000 RMK AO2 T00560050 $
Loading
Personal Weather Stations






























Interactive Weather Map
Tropical Storm Tracking
New forecast layout! Learn more

10-Day Weather Forecast

Advertisements
Track Severe Weather on mobile